createdAt,value
2018-11-26T00:00:33.882Z,34.80
2018-11-26T00:01:36.713Z,34.59
2018-11-26T00:02:39.348Z,34.81
2018-11-26T00:03:41.956Z,34.72
2018-11-26T00:04:44.572Z,34.41
2018-11-26T00:05:47.200Z,34.42
2018-11-26T00:06:49.796Z,34.79
2018-11-26T00:07:52.416Z,34.68
2018-11-26T00:08:55.017Z,34.24
2018-11-26T00:10:08.832Z,34.39
2018-11-26T00:11:34.368Z,34.26
2018-11-26T00:12:36.968Z,34.72
2018-11-26T00:13:39.596Z,34.42
2018-11-26T00:14:42.188Z,34.16
2018-11-26T00:15:44.792Z,34.83
2018-11-26T00:16:47.464Z,34.84
2018-11-26T00:17:50.073Z,34.32
2018-11-26T00:18:52.704Z,34.81
2018-11-26T00:19:55.304Z,34.41
2018-11-26T00:20:57.924Z,34.25
2018-11-26T00:22:00.531Z,34.25
2018-11-26T00:23:03.134Z,34.53
2018-11-26T00:24:05.940Z,34.68
2018-11-26T00:25:08.555Z,34.77
2018-11-26T00:26:11.184Z,34.66
2018-11-26T00:27:13.797Z,34.89
2018-11-26T00:28:16.389Z,34.59
2018-11-26T00:29:19.049Z,34.77
2018-11-26T00:30:21.664Z,34.33
2018-11-26T00:31:24.292Z,34.71
2018-11-26T00:32:26.906Z,34.44
2018-11-26T00:33:29.515Z,34.37
2018-11-26T00:34:32.242Z,34.73
2018-11-26T00:35:34.857Z,34.48
2018-11-26T00:36:37.479Z,34.92
2018-11-26T00:37:40.080Z,34.44
2018-11-26T00:38:42.680Z,34.86
2018-11-26T00:39:45.434Z,34.90
2018-11-26T00:40:48.036Z,34.52
2018-11-26T00:41:50.636Z,34.74
2018-11-26T00:42:53.219Z,34.43
2018-11-26T00:43:55.840Z,34.41
2018-11-26T00:44:58.540Z,34.48
2018-11-26T00:46:01.179Z,34.42
2018-11-26T00:47:03.796Z,34.44
2018-11-26T00:48:06.412Z,34.53
2018-11-26T00:49:09.032Z,34.39
2018-11-26T00:50:11.812Z,34.89
2018-11-26T00:51:14.424Z,34.65
2018-11-26T00:52:17.124Z,34.58
2018-11-26T00:53:19.735Z,34.49
2018-11-26T00:54:22.336Z,34.82
2018-11-26T00:55:25.035Z,34.30
2018-11-26T00:56:27.639Z,34.40
2018-11-26T00:57:30.244Z,34.32
2018-11-26T00:58:32.849Z,34.65
2018-11-26T00:59:35.445Z,34.56
2018-11-26T01:00:38.145Z,34.92
2018-11-26T01:01:40.760Z,34.47
2018-11-26T01:02:43.375Z,34.44
2018-11-26T01:03:45.984Z,34.45
2018-11-26T01:04:48.583Z,34.46
2018-11-26T01:05:51.288Z,34.45
2018-11-26T01:06:54.044Z,34.81
2018-11-26T01:07:56.649Z,34.78
2018-11-26T01:08:59.251Z,34.43
2018-11-26T01:10:01.871Z,34.35
2018-11-26T01:11:04.916Z,34.30
2018-11-26T01:12:07.527Z,34.65
2018-11-26T01:13:10.132Z,34.82
2018-11-26T01:14:12.744Z,34.69
2018-11-26T01:15:15.372Z,34.55
2018-11-26T01:16:18.000Z,34.66
2018-11-26T01:17:20.600Z,34.47
2018-11-26T01:18:23.237Z,34.39
2018-11-26T01:19:25.841Z,34.59
2018-11-26T01:20:28.444Z,34.60
2018-11-26T01:21:31.075Z,34.51
2018-11-26T01:22:33.680Z,34.22
2018-11-26T01:23:36.988Z,34.24
2018-11-26T01:24:39.596Z,34.42
2018-11-26T01:25:42.193Z,34.11
2018-11-26T01:26:44.808Z,34.41
2018-11-26T01:27:47.423Z,34.16
2018-11-26T01:28:50.019Z,34.46
2018-11-26T01:29:52.615Z,34.54
2018-11-26T01:30:55.236Z,34.16
2018-11-26T01:31:57.855Z,34.36
2018-11-26T01:33:00.449Z,34.41
2018-11-26T01:34:03.055Z,34.52
2018-11-26T01:35:06.903Z,34.56
2018-11-26T01:36:09.502Z,34.21
2018-11-26T01:37:12.108Z,34.19
2018-11-26T01:38:14.737Z,34.18
2018-11-26T01:39:17.332Z,34.35
2018-11-26T01:40:22.496Z,34.05
2018-11-26T01:41:25.109Z,34.05
2018-11-26T01:42:27.747Z,34.16
2018-11-26T01:43:30.372Z,34.44
2018-11-26T01:44:32.966Z,34.36
2018-11-26T01:45:35.570Z,33.96
2018-11-26T01:46:38.200Z,33.99
2018-11-26T01:47:40.836Z,34.06
2018-11-26T01:48:43.460Z,34.03
2018-11-26T01:49:46.072Z,34.35
2018-11-26T01:50:48.670Z,34.23
2018-11-26T01:51:51.263Z,34.10
2018-11-26T01:52:53.912Z,34.26
2018-11-26T01:53:56.525Z,34.06
2018-11-26T01:54:59.362Z,34.46
2018-11-26T01:56:01.969Z,34.01
2018-11-26T01:57:04.716Z,34.39
2018-11-26T01:58:07.328Z,34.00
2018-11-26T01:59:09.937Z,34.06
2018-11-26T02:00:24.001Z,34.25
2018-11-26T02:01:26.336Z,34.42
2018-11-26T02:02:28.924Z,33.77
2018-11-26T02:03:31.576Z,34.34
2018-11-26T02:04:34.216Z,34.13
2018-11-26T02:05:36.859Z,33.98
2018-11-26T02:06:39.488Z,34.01
2018-11-26T02:07:42.131Z,34.21
2018-11-26T02:08:44.764Z,34.39
2018-11-26T02:09:47.520Z,34.23
2018-11-26T02:10:50.124Z,34.30
2018-11-26T02:11:52.749Z,34.42
2018-11-26T02:12:55.376Z,34.13
2018-11-26T02:13:58.008Z,34.25
2018-11-26T02:15:00.607Z,33.98
2018-11-26T02:16:03.252Z,34.41
2018-11-26T02:17:05.936Z,34.30
2018-11-26T02:18:09.095Z,34.42
2018-11-26T02:19:11.720Z,34.00
2018-11-26T02:20:14.321Z,34.47
2018-11-26T02:21:16.940Z,34.13
2018-11-26T02:22:19.552Z,33.93
2018-11-26T02:23:22.175Z,34.40
2018-11-26T02:24:24.813Z,33.98
2018-11-26T02:25:27.516Z,34.22
2018-11-26T02:26:30.124Z,34.29
2018-11-26T02:27:32.736Z,34.17
2018-11-26T02:28:35.342Z,34.12
2018-11-26T02:29:37.968Z,34.17
2018-11-26T02:30:40.596Z,34.29
2018-11-26T02:31:43.223Z,33.95
2018-11-26T02:32:45.836Z,33.88
2018-11-26T02:33:48.441Z,34.15
2018-11-26T02:34:51.039Z,34.25
2018-11-26T02:35:53.640Z,33.63
2018-11-26T02:36:56.252Z,34.05
2018-11-26T02:37:58.840Z,34.14
2018-11-26T02:39:01.455Z,34.31
2018-11-26T02:40:04.746Z,33.90
2018-11-26T02:41:07.360Z,33.71
2018-11-26T02:42:09.984Z,34.24
2018-11-26T02:43:12.592Z,34.27
2018-11-26T02:44:15.251Z,34.28
2018-11-26T02:45:17.881Z,34.17
2018-11-26T02:46:20.496Z,34.31
2018-11-26T02:47:23.097Z,33.81
2018-11-26T02:48:25.687Z,34.07
2018-11-26T02:49:28.296Z,34.28
2018-11-26T02:50:31.024Z,34.09
2018-11-26T02:51:33.622Z,33.69
2018-11-26T02:52:36.232Z,33.96
2018-11-26T02:53:38.843Z,34.11
2018-11-26T02:54:41.444Z,33.88
2018-11-26T02:55:44.098Z,34.13
2018-11-26T02:56:46.880Z,34.13
2018-11-26T02:57:49.520Z,34.42
2018-11-26T02:58:52.120Z,34.17
2018-11-26T02:59:54.713Z,33.80
2018-11-26T03:00:57.360Z,33.94
2018-11-26T03:01:59.970Z,33.84
2018-11-26T03:03:02.578Z,34.09
2018-11-26T03:04:05.412Z,33.95
2018-11-26T03:05:09.426Z,33.83
2018-11-26T03:06:12.064Z,34.23
2018-11-26T03:07:14.672Z,33.84
2018-11-26T03:08:17.276Z,34.18
2018-11-26T03:09:19.889Z,33.86
2018-11-26T03:10:22.881Z,34.39
2018-11-26T03:11:25.852Z,34.05
2018-11-26T03:12:28.460Z,33.92
2018-11-26T03:13:31.053Z,34.21
2018-11-26T03:14:33.648Z,33.90
2018-11-26T03:15:36.262Z,33.93
2018-11-26T03:16:38.881Z,33.99
2018-11-26T03:17:41.472Z,33.99
2018-11-26T03:18:44.072Z,33.79
2018-11-26T03:19:46.668Z,33.83
2018-11-26T03:20:49.300Z,33.97
2018-11-26T03:21:51.919Z,34.17
2018-11-26T03:22:54.516Z,33.99
2018-11-26T03:23:57.124Z,33.97
2018-11-26T03:24:59.752Z,33.87
2018-11-26T03:26:02.363Z,33.85
2018-11-26T03:27:05.462Z,33.71
2018-11-26T03:28:08.168Z,34.09
2018-11-26T03:29:10.774Z,34.21
2018-11-26T03:30:15.394Z,33.74
2018-11-26T03:31:29.038Z,34.17
2018-11-26T03:32:31.644Z,34.09
2018-11-26T03:33:34.250Z,33.61
2018-11-26T03:34:36.873Z,34.16
2018-11-26T03:35:39.468Z,33.64
2018-11-26T03:36:42.072Z,34.12
2018-11-26T03:37:44.719Z,33.68
2018-11-26T03:38:55.219Z,34.22
2018-11-26T03:39:57.819Z,33.65
2018-11-26T03:41:00.476Z,33.85
2018-11-26T03:42:03.105Z,33.99
2018-11-26T03:43:05.792Z,34.08
2018-11-26T03:44:08.387Z,33.96
2018-11-26T03:45:12.284Z,34.11
2018-11-26T03:46:14.956Z,33.62
2018-11-26T03:47:17.553Z,33.62
2018-11-26T03:48:20.172Z,33.67
2018-11-26T03:49:22.779Z,33.89
2018-11-26T03:50:25.412Z,34.00
2018-11-26T03:51:28.016Z,34.11
2018-11-26T03:52:30.620Z,34.11
2018-11-26T03:53:33.258Z,33.89
2018-11-26T03:54:35.882Z,33.56
2018-11-26T03:55:39.558Z,33.62
2018-11-26T03:56:42.176Z,34.07
2018-11-26T03:57:44.791Z,34.07
2018-11-26T03:58:47.551Z,33.63
2018-11-26T03:59:50.148Z,33.67
2018-11-26T04:00:52.748Z,33.48
2018-11-26T04:01:55.368Z,34.37
2018-11-26T04:02:57.960Z,34.15
2018-11-26T04:04:00.605Z,33.53
2018-11-26T04:05:03.304Z,33.53
2018-11-26T04:06:05.948Z,33.76
2018-11-26T04:07:08.556Z,33.99
2018-11-26T04:08:11.168Z,34.13
2018-11-26T04:09:13.784Z,33.74
2018-11-26T04:10:16.376Z,34.18
2018-11-26T04:11:18.989Z,33.68
2018-11-26T04:12:21.599Z,34.09
2018-11-26T04:13:24.188Z,33.72
2018-11-26T04:14:26.805Z,33.73
2018-11-26T04:15:29.392Z,34.01
2018-11-26T04:16:32.046Z,34.18
2018-11-26T04:17:34.648Z,34.01
2018-11-26T04:18:37.240Z,34.13
2018-11-26T04:19:39.941Z,33.79
2018-11-26T04:20:42.648Z,33.93
2018-11-26T04:21:45.242Z,33.64
2018-11-26T04:22:47.856Z,34.09
2018-11-26T04:23:50.448Z,34.06
2018-11-26T04:24:53.039Z,33.58
2018-11-26T04:25:55.642Z,34.18
2018-11-26T04:26:58.587Z,33.66
2018-11-26T04:28:00.902Z,33.85
2018-11-26T04:29:03.531Z,33.67
2018-11-26T04:30:09.403Z,33.67
2018-11-26T04:31:12.009Z,33.90
2018-11-26T04:32:14.596Z,33.64
2018-11-26T04:33:22.425Z,33.52
2018-11-26T04:34:25.005Z,33.53
2018-11-26T04:35:27.633Z,33.90
2018-11-26T04:36:30.220Z,33.60
2018-11-26T04:37:32.832Z,33.74
2018-11-26T04:38:35.528Z,33.66
2018-11-26T04:39:38.131Z,33.74
2018-11-26T04:40:40.715Z,33.76
2018-11-26T04:41:43.312Z,33.64
2018-11-26T04:42:45.932Z,33.84
2018-11-26T04:43:48.640Z,33.61
2018-11-26T04:44:51.232Z,33.30
2018-11-26T04:45:53.844Z,33.27
2018-11-26T04:46:56.443Z,33.81
2018-11-26T04:47:59.048Z,33.84
2018-11-26T04:49:01.756Z,33.39
2018-11-26T04:50:05.769Z,33.41
2018-11-26T04:51:08.376Z,33.71
2018-11-26T04:52:10.972Z,33.89
2018-11-26T04:53:13.567Z,33.43
2018-11-26T04:54:16.260Z,33.58
2018-11-26T04:55:18.876Z,33.49
2018-11-26T04:56:28.168Z,33.84
2018-11-26T04:57:30.768Z,33.52
2018-11-26T04:58:33.356Z,33.32
2018-11-26T04:59:35.972Z,33.76
2018-11-26T05:00:38.648Z,33.91
2018-11-26T05:01:41.252Z,33.50
2018-11-26T05:02:43.857Z,34.00
2018-11-26T05:03:46.472Z,33.98
2018-11-26T05:04:49.175Z,34.08
2018-11-26T05:05:51.771Z,33.65
2018-11-26T05:06:54.360Z,33.71
2018-11-26T05:07:56.989Z,33.65
2018-11-26T05:08:59.592Z,34.00
2018-11-26T05:10:02.256Z,34.09
2018-11-26T05:11:05.191Z,33.73
2018-11-26T05:12:07.796Z,33.63
2018-11-26T05:13:10.396Z,34.12
2018-11-26T05:14:12.984Z,33.58
2018-11-26T05:15:15.714Z,34.06
2018-11-26T05:16:18.304Z,33.60
2018-11-26T05:17:20.892Z,34.09
2018-11-26T05:18:23.496Z,33.52
2018-11-26T05:19:26.084Z,34.06
2018-11-26T05:20:28.808Z,33.75
2018-11-26T05:21:31.395Z,33.50
2018-11-26T05:22:33.989Z,34.08
2018-11-26T05:23:36.596Z,34.11
2018-11-26T05:24:39.192Z,34.04
2018-11-26T05:25:41.916Z,33.61
2018-11-26T05:26:44.516Z,33.66
2018-11-26T05:27:47.120Z,33.54
2018-11-26T05:28:49.716Z,33.63
2018-11-26T05:29:52.317Z,33.63
2018-11-26T05:30:55.032Z,33.71
2018-11-26T05:31:57.633Z,34.09
2018-11-26T05:33:00.256Z,33.76
2018-11-26T05:34:02.856Z,33.53
2018-11-26T05:35:07.024Z,33.84
2018-11-26T05:36:09.732Z,33.52
2018-11-26T05:37:12.340Z,33.78
2018-11-26T05:38:14.935Z,33.93
2018-11-26T05:39:17.532Z,33.62
2018-11-26T05:40:20.134Z,33.94
2018-11-26T05:41:22.735Z,33.87
2018-11-26T05:42:28.787Z,33.92
2018-11-26T05:43:27.980Z,33.45
2018-11-26T05:44:30.572Z,33.55
2018-11-26T05:45:33.172Z,33.49
2018-11-26T05:46:35.860Z,33.42
2018-11-26T05:47:38.492Z,33.79
2018-11-26T05:48:41.108Z,33.81
2018-11-26T05:49:43.745Z,33.67
2018-11-26T05:50:46.364Z,33.90
2018-11-26T05:51:48.984Z,33.87
2018-11-26T05:52:51.598Z,33.90
2018-11-26T05:53:54.195Z,33.71
2018-11-26T05:54:56.796Z,33.62
2018-11-26T05:55:59.428Z,33.82
2018-11-26T05:57:02.048Z,33.54
2018-11-26T05:58:05.372Z,33.63
2018-11-26T05:59:07.988Z,33.44
2018-11-26T06:00:13.248Z,33.37
2018-11-26T06:01:15.860Z,33.75
2018-11-26T06:02:18.500Z,33.68
2018-11-26T06:03:21.299Z,33.28
2018-11-26T06:04:23.897Z,33.23
2018-11-26T06:05:26.500Z,33.23
2018-11-26T06:06:29.103Z,33.48
2018-11-26T06:07:31.718Z,33.46
2018-11-26T06:08:34.413Z,33.40
2018-11-26T06:09:37.012Z,33.23
2018-11-26T06:10:39.655Z,33.12
2018-11-26T06:11:42.259Z,33.48
2018-11-26T06:12:44.879Z,33.58
2018-11-26T06:13:47.504Z,33.05
2018-11-26T06:14:50.100Z,33.10
2018-11-26T06:15:52.704Z,32.98
2018-11-26T06:16:55.347Z,33.32
2018-11-26T06:17:57.963Z,33.49
2018-11-26T06:19:00.598Z,33.37
2018-11-26T06:20:03.648Z,33.00
2018-11-26T06:21:06.424Z,33.03
2018-11-26T06:22:09.039Z,32.94
2018-11-26T06:23:11.662Z,33.10
2018-11-26T06:24:14.269Z,33.25
2018-11-26T06:25:19.133Z,33.24
2018-11-26T06:26:21.749Z,32.95
2018-11-26T06:27:24.356Z,33.25
2018-11-26T06:28:26.996Z,33.33
2018-11-26T06:29:29.604Z,33.11
2018-11-26T06:30:32.235Z,33.40
2018-11-26T06:31:34.839Z,33.47
2018-11-26T06:32:37.501Z,33.05
2018-11-26T06:33:40.108Z,33.03
2018-11-26T06:34:42.745Z,33.41
2018-11-26T06:35:45.348Z,33.57
2018-11-26T06:36:47.944Z,33.26
2018-11-26T06:37:50.630Z,33.56
2018-11-26T06:38:53.396Z,33.48
2018-11-26T06:39:55.987Z,33.47
2018-11-26T06:40:58.585Z,33.61
2018-11-26T06:42:01.197Z,33.25
2018-11-26T06:43:04.212Z,33.29
2018-11-26T06:44:07.126Z,33.44
2018-11-26T06:45:13.188Z,33.45
2018-11-26T06:46:15.776Z,33.57
2018-11-26T06:47:18.426Z,33.58
2018-11-26T06:48:21.048Z,33.58
2018-11-26T06:49:23.664Z,33.29
2018-11-26T06:50:26.264Z,33.45
2018-11-26T06:51:28.859Z,33.14
2018-11-26T06:52:31.460Z,33.12
2018-11-26T06:53:34.060Z,33.19
2018-11-26T06:54:36.652Z,33.55
2018-11-26T06:55:39.265Z,33.46
2018-11-26T06:56:41.864Z,33.67
2018-11-26T06:57:44.464Z,33.20
2018-11-26T06:58:47.045Z,33.04
2018-11-26T06:59:49.640Z,33.16
2018-11-26T07:00:52.240Z,33.71
2018-11-26T07:01:54.840Z,33.35
2018-11-26T07:02:57.432Z,33.63
2018-11-26T07:04:00.029Z,33.56
2018-11-26T07:05:02.936Z,33.40
2018-11-26T07:06:06.284Z,33.43
2018-11-26T07:07:09.026Z,33.75
2018-11-26T07:08:11.624Z,33.70
2018-11-26T07:09:14.268Z,33.59
2018-11-26T07:10:17.660Z,33.67
2018-11-26T07:11:20.264Z,33.48
2018-11-26T07:12:22.876Z,33.55
2018-11-26T07:13:25.472Z,33.35
2018-11-26T07:14:28.057Z,33.34
2018-11-26T07:15:30.682Z,33.15
2018-11-26T07:16:33.292Z,33.23
2018-11-26T07:17:35.902Z,33.72
2018-11-26T07:18:38.534Z,33.68
2018-11-26T07:19:41.156Z,33.42
2018-11-26T07:20:43.793Z,33.10
2018-11-26T07:21:46.404Z,33.53
2018-11-26T07:22:49.007Z,33.57
2018-11-26T07:23:51.600Z,33.49
2018-11-26T07:24:54.204Z,33.22
2018-11-26T07:25:56.828Z,33.52
2018-11-26T07:26:59.436Z,33.21
2018-11-26T07:28:03.868Z,33.38
2018-11-26T07:29:06.468Z,33.23
2018-11-26T07:30:11.569Z,33.17
2018-11-26T07:31:14.168Z,33.23
2018-11-26T07:32:16.772Z,33.29
2018-11-26T07:33:19.380Z,33.16
2018-11-26T07:34:21.972Z,33.27
2018-11-26T07:35:24.555Z,33.64
2018-11-26T07:36:27.264Z,33.12
2018-11-26T07:37:29.854Z,33.34
2018-11-26T07:38:33.484Z,33.15
2018-11-26T07:39:36.089Z,33.30
2018-11-26T07:40:38.693Z,33.08
2018-11-26T07:41:41.308Z,33.30
2018-11-26T07:42:47.280Z,33.77
2018-11-26T07:43:49.875Z,33.53
2018-11-26T07:44:52.476Z,33.71
2018-11-26T07:45:55.073Z,33.10
2018-11-26T07:46:57.660Z,33.19
2018-11-26T07:48:00.262Z,33.39
2018-11-26T07:49:02.864Z,33.27
2018-11-26T07:50:08.792Z,33.43
2018-11-26T07:51:11.390Z,33.73
2018-11-26T07:52:13.992Z,33.22
2018-11-26T07:53:16.600Z,33.52
2018-11-26T07:54:19.208Z,33.62
2018-11-26T07:55:22.690Z,33.80
2018-11-26T07:56:25.322Z,33.61
2018-11-26T07:57:27.933Z,33.83
2018-11-26T07:58:30.544Z,33.64
2018-11-26T07:59:33.149Z,33.79
2018-11-26T08:00:35.764Z,33.45
2018-11-26T08:01:38.363Z,33.50
2018-11-26T08:02:41.247Z,33.37
2018-11-26T08:03:43.848Z,33.74
2018-11-26T08:04:46.432Z,33.71
2018-11-26T08:05:49.020Z,33.52
2018-11-26T08:06:51.626Z,33.78
2018-11-26T08:07:54.244Z,33.62
2018-11-26T08:08:56.959Z,33.23
2018-11-26T08:09:59.576Z,33.74
2018-11-26T08:11:02.185Z,33.39
2018-11-26T08:12:04.842Z,33.66
2018-11-26T08:13:07.441Z,33.26
2018-11-26T08:14:10.041Z,33.66
2018-11-26T08:15:14.971Z,33.88
2018-11-26T08:16:17.572Z,33.67
2018-11-26T08:17:20.163Z,33.43
2018-11-26T08:18:22.764Z,33.66
2018-11-26T08:19:25.359Z,33.83
2018-11-26T08:20:27.947Z,33.35
2018-11-26T08:21:30.580Z,33.92
2018-11-26T08:22:33.169Z,33.70
2018-11-26T08:23:35.840Z,33.94
2018-11-26T08:24:38.440Z,33.43
2018-11-26T08:25:41.036Z,33.55
2018-11-26T08:26:43.635Z,33.52
2018-11-26T08:27:46.928Z,33.76
2018-11-26T08:28:49.560Z,33.75
2018-11-26T08:29:52.160Z,33.52
2018-11-26T08:30:54.767Z,33.86
2018-11-26T08:31:57.375Z,33.61
2018-11-26T08:33:00.864Z,33.48
2018-11-26T08:34:03.489Z,33.46
2018-11-26T08:35:06.236Z,33.58
2018-11-26T08:36:12.652Z,33.44
2018-11-26T08:37:16.357Z,34.00
2018-11-26T08:38:28.380Z,33.60
2018-11-26T08:39:36.148Z,33.62
2018-11-26T08:40:43.372Z,34.08
2018-11-26T08:41:52.028Z,34.06
2018-11-26T08:44:09.545Z,34.07
2018-11-26T08:45:17.265Z,33.71
2018-11-26T08:46:25.312Z,33.91
2018-11-26T08:47:38.248Z,33.91
2018-11-26T08:48:46.460Z,33.82
2018-11-26T08:49:49.052Z,33.71
2018-11-26T08:50:51.678Z,33.92
2018-11-26T08:51:54.304Z,33.83
2018-11-26T08:52:56.937Z,33.87
2018-11-26T08:53:59.529Z,34.28
2018-11-26T08:55:02.140Z,33.88
2018-11-26T08:56:04.910Z,34.26
2018-11-26T08:57:07.573Z,33.80
2018-11-26T08:58:10.176Z,34.15
2018-11-26T08:59:12.770Z,33.74
2018-11-26T09:00:15.370Z,33.80
2018-11-26T09:01:19.492Z,34.19
2018-11-26T09:02:26.588Z,33.85
2018-11-26T09:03:35.110Z,34.37
2018-11-26T09:04:45.656Z,33.85
2018-11-26T09:05:53.708Z,34.20
2018-11-26T09:06:56.335Z,34.07
2018-11-26T09:07:58.937Z,34.06
2018-11-26T09:09:01.555Z,34.12
2018-11-26T09:10:04.760Z,33.86
2018-11-26T09:11:08.855Z,33.81
2018-11-26T09:12:11.536Z,34.25
2018-11-26T09:13:14.128Z,33.86
2018-11-26T09:14:16.732Z,33.99
2018-11-26T09:15:19.331Z,34.17
2018-11-26T09:16:21.972Z,33.71
2018-11-26T09:17:24.592Z,33.77
2018-11-26T09:18:27.215Z,34.23
2018-11-26T09:19:29.841Z,34.08
2018-11-26T09:20:32.456Z,33.81
2018-11-26T09:21:35.062Z,34.12
2018-11-26T09:22:37.688Z,34.31
2018-11-26T09:23:40.302Z,33.72
2018-11-26T09:24:42.944Z,33.78
2018-11-26T09:25:45.557Z,34.18
2018-11-26T09:26:48.164Z,33.77
2018-11-26T09:27:50.781Z,34.34
2018-11-26T09:28:53.422Z,33.71
2018-11-26T09:29:56.019Z,34.24
2018-11-26T09:30:58.628Z,33.78
2018-11-26T09:32:01.241Z,34.26
2018-11-26T09:33:03.862Z,34.19
2018-11-26T09:34:06.798Z,34.17
2018-11-26T09:35:11.284Z,34.27
2018-11-26T09:36:13.888Z,34.28
2018-11-26T09:37:16.492Z,34.24
2018-11-26T09:38:19.102Z,33.78
2018-11-26T09:39:21.713Z,33.80
2018-11-26T09:40:24.304Z,33.89
2018-11-26T09:41:27.017Z,34.14
2018-11-26T09:42:29.652Z,33.98
2018-11-26T09:43:32.283Z,33.97
2018-11-26T09:44:34.884Z,34.33
2018-11-26T09:45:40.556Z,34.31
2018-11-26T09:46:40.158Z,34.26
2018-11-26T09:47:42.813Z,34.33
2018-11-26T09:48:45.425Z,34.28
2018-11-26T09:49:48.044Z,34.31
2018-11-26T09:50:50.680Z,34.12
2018-11-26T09:51:53.277Z,34.03
2018-11-26T09:52:55.937Z,34.07
2018-11-26T09:53:58.520Z,34.17
2018-11-26T09:55:01.134Z,34.04
2018-11-26T09:56:04.675Z,34.19
2018-11-26T09:57:06.460Z,33.99
2018-11-26T09:58:09.085Z,34.30
2018-11-26T09:59:11.684Z,33.96
2018-11-26T10:00:15.394Z,33.99
2018-11-26T10:01:18.022Z,34.04
2018-11-26T10:02:20.619Z,34.28
2018-11-26T10:03:23.249Z,34.29
2018-11-26T10:04:25.844Z,34.46
2018-11-26T10:05:28.446Z,33.83
2018-11-26T10:06:31.045Z,34.26
2018-11-26T10:07:33.664Z,34.29
2018-11-26T10:08:36.260Z,34.22
2018-11-26T10:09:38.846Z,33.92
2018-11-26T10:10:41.452Z,33.96
2018-11-26T10:11:44.063Z,34.13
2018-11-26T10:12:46.840Z,34.05
2018-11-26T10:13:49.460Z,34.01
2018-11-26T10:14:52.064Z,33.84
2018-11-26T10:15:54.688Z,34.29
2018-11-26T10:16:57.304Z,34.23
2018-11-26T10:17:59.916Z,33.89
2018-11-26T10:19:02.520Z,34.24
2018-11-26T10:20:05.926Z,33.94
2018-11-26T10:21:08.512Z,34.32
2018-11-26T10:22:11.119Z,34.28
2018-11-26T10:23:13.748Z,33.95
2018-11-26T10:24:16.373Z,33.74
2018-11-26T10:25:19.895Z,33.93
2018-11-26T10:26:22.509Z,34.14
2018-11-26T10:27:25.108Z,34.46
2018-11-26T10:28:27.710Z,33.80
2018-11-26T10:29:30.316Z,33.88
2018-11-26T10:30:32.912Z,34.13
2018-11-26T10:31:35.515Z,34.29
2018-11-26T10:32:38.347Z,34.02
2018-11-26T10:33:40.940Z,34.08
2018-11-26T10:34:43.536Z,34.22
2018-11-26T10:35:46.156Z,34.35
2018-11-26T10:36:48.763Z,34.16
2018-11-26T10:37:51.402Z,34.04
2018-11-26T10:38:54.005Z,34.16
2018-11-26T10:39:56.612Z,33.88
2018-11-26T10:40:59.329Z,34.41
2018-11-26T10:42:01.948Z,34.10
2018-11-26T10:43:07.801Z,34.36
2018-11-26T10:44:07.725Z,33.91
2018-11-26T10:45:12.344Z,34.01
2018-11-26T10:46:14.940Z,34.37
2018-11-26T10:47:17.545Z,33.92
2018-11-26T10:48:20.179Z,34.05
2018-11-26T10:49:22.784Z,33.88
2018-11-26T10:50:26.236Z,34.37
2018-11-26T10:51:29.178Z,33.90
2018-11-26T10:52:31.485Z,33.98
2018-11-26T10:53:34.100Z,33.75
2018-11-26T10:54:36.688Z,34.31
2018-11-26T10:55:39.282Z,34.29
2018-11-26T10:56:41.868Z,33.96
2018-11-26T10:57:44.527Z,34.46
2018-11-26T10:58:47.113Z,34.31
2018-11-26T10:59:49.710Z,34.26
2018-11-26T11:01:01.244Z,33.98
2018-11-26T11:03:08.069Z,34.26
2018-11-26T11:04:10.668Z,34.03
2018-11-26T11:05:13.324Z,34.02
2018-11-26T11:06:15.924Z,34.51
2018-11-26T11:07:18.552Z,34.17
2018-11-26T11:08:21.197Z,34.03
2018-11-26T11:09:23.816Z,34.17
2018-11-26T11:10:28.717Z,34.38
2018-11-26T11:11:31.333Z,34.04
2018-11-26T11:12:33.959Z,34.31
2018-11-26T11:13:36.556Z,34.04
2018-11-26T11:14:39.296Z,34.26
2018-11-26T11:15:41.924Z,34.49
2018-11-26T11:16:44.564Z,34.54
2018-11-26T11:17:47.180Z,34.04
2018-11-26T11:18:49.789Z,34.15
2018-11-26T11:19:52.392Z,33.96
2018-11-26T11:20:54.984Z,34.72
2018-11-26T11:21:57.591Z,34.54
2018-11-26T11:23:00.194Z,34.57
2018-11-26T11:24:02.804Z,34.56
2018-11-26T11:25:06.224Z,34.36
2018-11-26T11:26:08.852Z,34.08
2018-11-26T11:27:11.464Z,34.35
2018-11-26T11:28:14.063Z,34.47
2018-11-26T11:29:16.662Z,33.88
2018-11-26T11:30:20.982Z,34.05
2018-11-26T11:31:23.573Z,34.46
2018-11-26T11:32:26.186Z,34.43
2018-11-26T11:33:28.790Z,33.96
2018-11-26T11:34:31.389Z,34.38
2018-11-26T11:35:34.093Z,33.94
2018-11-26T11:36:36.697Z,34.37
2018-11-26T11:37:39.491Z,33.85
2018-11-26T11:38:42.089Z,33.91
2018-11-26T11:39:44.701Z,34.09
2018-11-26T11:40:47.309Z,34.25
2018-11-26T11:41:49.923Z,33.95
2018-11-26T11:42:52.638Z,33.94
2018-11-26T11:43:55.257Z,34.41
2018-11-26T11:44:57.914Z,34.30
2018-11-26T11:46:00.550Z,34.30
2018-11-26T11:47:03.181Z,34.36
2018-11-26T11:48:06.173Z,34.43
2018-11-26T11:49:08.766Z,34.07
2018-11-26T11:50:12.506Z,34.20
2018-11-26T11:51:15.098Z,34.48
2018-11-26T11:52:17.714Z,34.08
2018-11-26T11:53:20.312Z,33.96
2018-11-26T11:54:22.925Z,34.21
2018-11-26T11:55:26.295Z,34.44
2018-11-26T11:56:28.917Z,34.20
2018-11-26T11:57:31.549Z,34.38
2018-11-26T11:58:34.161Z,34.06
2018-11-26T11:59:36.789Z,34.27
2018-11-26T12:00:40.424Z,34.25
2018-11-26T12:01:43.041Z,34.05
2018-11-26T12:02:45.654Z,34.49
2018-11-26T12:03:48.273Z,34.13
2018-11-26T12:04:50.900Z,34.23
2018-11-26T12:05:53.494Z,34.45
2018-11-26T12:06:56.113Z,34.21
2018-11-26T12:07:58.729Z,34.02
2018-11-26T12:09:01.347Z,34.34
2018-11-26T12:10:04.361Z,33.85
2018-11-26T12:11:07.194Z,34.24
2018-11-26T12:12:09.792Z,33.83
2018-11-26T12:13:13.446Z,34.07
2018-11-26T12:14:16.061Z,34.14
2018-11-26T12:15:18.722Z,33.87
2018-11-26T12:16:21.330Z,33.92
2018-11-26T12:17:23.941Z,34.21
2018-11-26T12:18:26.532Z,33.79
2018-11-26T12:19:29.137Z,33.89
2018-11-26T12:20:31.741Z,34.26
2018-11-26T12:21:34.345Z,34.12
2018-11-26T12:22:37.062Z,33.61
2018-11-26T12:23:39.685Z,33.69
2018-11-26T12:24:42.305Z,33.72
2018-11-26T12:25:44.941Z,33.84
2018-11-26T12:26:47.537Z,34.11
2018-11-26T12:27:50.141Z,34.06
2018-11-26T12:28:52.742Z,34.16
2018-11-26T12:29:55.337Z,33.99
2018-11-26T12:30:57.934Z,34.02
2018-11-26T12:32:00.557Z,33.74
2018-11-26T12:33:03.173Z,33.65
2018-11-26T12:34:05.913Z,34.18
2018-11-26T12:35:08.588Z,33.92
2018-11-26T12:36:11.185Z,33.67
2018-11-26T12:37:13.862Z,33.75
2018-11-26T12:38:16.498Z,33.55
2018-11-26T12:39:19.098Z,33.50
2018-11-26T12:40:23.733Z,33.88
2018-11-26T12:41:26.349Z,34.01
2018-11-26T12:42:28.963Z,33.93
2018-11-26T12:43:31.561Z,33.58
2018-11-26T12:44:52.081Z,33.70
2018-11-26T12:45:54.714Z,33.62
2018-11-26T12:46:57.315Z,33.96
2018-11-26T12:48:00.534Z,33.72
2018-11-26T12:49:03.158Z,33.80
2018-11-26T12:50:06.266Z,33.74
2018-11-26T12:51:08.867Z,33.93
2018-11-26T12:52:11.486Z,33.99
2018-11-26T12:53:14.117Z,33.75
2018-11-26T12:54:16.709Z,33.94
2018-11-26T12:55:20.365Z,33.37
2018-11-26T12:56:22.969Z,33.84
2018-11-26T12:57:25.602Z,33.29
2018-11-26T12:58:28.222Z,33.66
2018-11-26T12:59:30.837Z,33.45
2018-11-26T13:00:33.426Z,33.46
2018-11-26T13:01:36.042Z,33.41
2018-11-26T13:02:38.625Z,33.82
2018-11-26T13:03:41.229Z,33.56
2018-11-26T13:04:43.833Z,33.36
2018-11-26T13:05:46.425Z,33.32
2018-11-26T13:06:49.086Z,33.33
2018-11-26T13:07:51.725Z,33.48
2018-11-26T13:08:54.321Z,33.13
2018-11-26T13:09:56.935Z,33.25
2018-11-26T13:10:59.578Z,33.65
2018-11-26T13:12:02.197Z,33.15
2018-11-26T13:13:05.398Z,33.23
2018-11-26T13:14:08.021Z,33.16
2018-11-26T13:15:12.967Z,33.11
2018-11-26T13:16:15.575Z,33.03
2018-11-26T13:17:18.169Z,33.33
2018-11-26T13:18:20.805Z,33.14
2018-11-26T13:19:23.514Z,33.60
2018-11-26T13:20:27.574Z,33.48
2018-11-26T13:21:30.178Z,33.51
2018-11-26T13:22:32.775Z,33.41
2018-11-26T13:23:35.382Z,33.35
2018-11-26T13:24:37.985Z,33.50
2018-11-26T13:25:42.012Z,33.54
2018-11-26T13:26:43.358Z,33.09
2018-11-26T13:27:47.354Z,33.21
2018-11-26T13:28:49.958Z,33.49
2018-11-26T13:29:52.558Z,32.97
2018-11-26T13:30:55.157Z,33.64
2018-11-26T13:31:57.739Z,33.58
2018-11-26T13:33:01.558Z,33.12